createdAt,value
2016-12-17T00:00:54.233Z,743.66
2016-12-17T00:01:54.215Z,743.68
2016-12-17T00:02:54.198Z,743.66
2016-12-17T00:03:54.182Z,743.7
2016-12-17T00:04:54.163Z,743.73
2016-12-17T00:05:54.150Z,743.73
2016-12-17T00:06:54.130Z,743.7
2016-12-17T00:07:54.112Z,743.73
2016-12-17T00:08:54.096Z,743.7
2016-12-17T00:09:54.078Z,743.74
2016-12-17T00:10:54.061Z,743.75
2016-12-17T00:11:54.044Z,743.76
2016-12-17T00:12:54.028Z,743.72
2016-12-17T00:13:54.011Z,743.75
2016-12-17T00:14:53.994Z,743.78
2016-12-17T00:15:53.976Z,743.77
2016-12-17T00:16:53.959Z,743.77
2016-12-17T00:17:53.943Z,743.72
2016-12-17T00:18:53.926Z,743.71
2016-12-17T00:19:53.908Z,743.74
2016-12-17T00:20:53.892Z,743.72
2016-12-17T00:21:53.875Z,743.75
2016-12-17T00:22:53.858Z,743.75
2016-12-17T00:23:53.840Z,743.76
2016-12-17T00:24:53.823Z,743.78
2016-12-17T00:25:53.807Z,743.77
2016-12-17T00:26:53.789Z,743.77
2016-12-17T00:27:53.772Z,743.79
2016-12-17T00:28:53.755Z,743.79
2016-12-17T00:29:53.738Z,743.75
2016-12-17T00:30:53.719Z,743.79
2016-12-17T00:31:53.703Z,743.75
2016-12-17T00:32:53.686Z,743.78
2016-12-17T00:33:53.668Z,743.76
2016-12-17T00:34:53.651Z,743.76
2016-12-17T00:35:53.633Z,743.79
2016-12-17T00:36:53.616Z,743.78
2016-12-17T00:37:53.598Z,743.81
2016-12-17T00:38:53.581Z,743.76
2016-12-17T00:39:53.565Z,743.81
2016-12-17T00:40:53.548Z,743.81
2016-12-17T00:41:53.530Z,743.81
2016-12-17T00:42:53.513Z,743.8
2016-12-17T00:43:53.496Z,743.79
2016-12-17T00:44:53.480Z,743.79
2016-12-17T00:45:53.463Z,743.79
2016-12-17T00:46:53.444Z,743.81
2016-12-17T00:47:53.427Z,743.85
2016-12-17T00:48:53.408Z,743.83
2016-12-17T00:49:53.392Z,743.82
2016-12-17T00:50:53.375Z,743.82
2016-12-17T00:51:53.357Z,743.81
2016-12-17T00:52:53.340Z,743.81
2016-12-17T00:53:53.322Z,743.79
2016-12-17T00:54:53.304Z,743.83
2016-12-17T00:55:53.287Z,743.83
2016-12-17T00:56:53.270Z,743.78
2016-12-17T00:57:53.253Z,743.79
2016-12-17T00:58:53.236Z,743.8
2016-12-17T00:59:53.216Z,743.79
2016-12-17T01:00:53.200Z,743.84
2016-12-17T01:01:53.183Z,743.82
2016-12-17T01:02:53.165Z,743.85
2016-12-17T01:03:53.147Z,743.87
2016-12-17T01:04:53.129Z,743.81
2016-12-17T01:05:53.113Z,743.84
2016-12-17T01:06:53.095Z,743.85
2016-12-17T01:07:53.077Z,743.87
2016-12-17T01:08:53.059Z,743.88
2016-12-17T01:09:53.043Z,743.86
2016-12-17T01:10:53.024Z,743.91
2016-12-17T01:11:53.008Z,743.92
2016-12-17T01:12:52.991Z,743.97
2016-12-17T01:13:52.973Z,743.95
2016-12-17T01:14:52.954Z,743.95
2016-12-17T01:15:52.937Z,743.94
2016-12-17T01:16:52.919Z,743.97
2016-12-17T01:17:52.902Z,743.98
2016-12-17T01:18:52.883Z,743.95
2016-12-17T01:19:52.866Z,744.03
2016-12-17T01:20:52.848Z,743.98
2016-12-17T01:21:52.831Z,744.02
2016-12-17T01:22:52.813Z,743.95
2016-12-17T01:23:52.796Z,744.02
2016-12-17T01:24:52.779Z,744.05
2016-12-17T01:25:52.759Z,744.01
2016-12-17T01:26:52.745Z,744.02
2016-12-17T01:27:52.724Z,744.07
2016-12-17T01:28:52.706Z,744.05
2016-12-17T01:29:52.688Z,744.02
2016-12-17T01:30:52.672Z,744.07
2016-12-17T01:31:52.655Z,744.07
2016-12-17T01:32:52.637Z,744.06
2016-12-17T01:33:52.619Z,744.02
2016-12-17T01:34:52.603Z,744.06
2016-12-17T01:35:52.586Z,744.02
2016-12-17T01:36:52.570Z,743.98
2016-12-17T01:37:52.551Z,743.97
2016-12-17T01:38:52.533Z,744.03
2016-12-17T01:39:52.514Z,743.98
2016-12-17T01:40:52.498Z,743.96
2016-12-17T01:41:52.481Z,743.95
2016-12-17T01:42:52.463Z,743.98
2016-12-17T01:43:52.445Z,743.99
2016-12-17T01:44:52.428Z,743.97
2016-12-17T01:45:52.410Z,743.99
2016-12-17T01:46:52.394Z,743.98
2016-12-17T01:47:52.375Z,743.98
2016-12-17T01:48:52.358Z,743.99
2016-12-17T01:49:52.342Z,744.02
2016-12-17T01:50:52.323Z,743.99
2016-12-17T01:51:52.307Z,744.01
2016-12-17T01:52:52.289Z,744.02
2016-12-17T01:53:52.274Z,743.99
2016-12-17T01:54:52.253Z,744.05
2016-12-17T01:55:52.236Z,743.99
2016-12-17T01:56:52.220Z,744.03
2016-12-17T01:57:52.203Z,744
2016-12-17T01:58:52.186Z,744.01
2016-12-17T01:59:52.169Z,744.04
2016-12-17T02:00:52.151Z,744.03
2016-12-17T02:01:52.132Z,744.07
2016-12-17T02:02:52.116Z,744.09
2016-12-17T02:03:52.099Z,744.09
2016-12-17T02:04:52.080Z,744.09
2016-12-17T02:05:52.061Z,744.08
2016-12-17T02:06:52.043Z,744.05
2016-12-17T02:07:52.025Z,744.12
2016-12-17T02:08:52.011Z,744.16
2016-12-17T02:09:51.989Z,744.08
2016-12-17T02:10:51.971Z,744.13
2016-12-17T02:11:51.954Z,744.15
2016-12-17T02:12:51.936Z,744.13
2016-12-17T02:13:51.918Z,744.16
2016-12-17T02:14:51.900Z,744.15
2016-12-17T02:15:51.884Z,744.17
2016-12-17T02:16:51.862Z,744.16
2016-12-17T02:17:51.844Z,744.18
2016-12-17T02:18:51.826Z,744.19
2016-12-17T02:19:51.806Z,744.16
2016-12-17T02:20:51.788Z,744.18
2016-12-17T02:21:51.771Z,744.15
2016-12-17T02:22:51.753Z,744.16
2016-12-17T02:23:51.733Z,744.15
2016-12-17T02:24:51.716Z,744.17
2016-12-17T02:25:51.697Z,744.14
2016-12-17T02:26:51.679Z,744.13
2016-12-17T02:27:51.660Z,744.17
2016-12-17T02:28:51.644Z,744.16
2016-12-17T02:29:51.623Z,744.12
2016-12-17T02:30:51.605Z,744.15
2016-12-17T02:31:51.584Z,744.07
2016-12-17T02:32:51.567Z,744.13
2016-12-17T02:33:51.547Z,744.16
2016-12-17T02:34:51.529Z,744.13
2016-12-17T02:35:51.511Z,744.1
2016-12-17T02:36:51.491Z,744.08
2016-12-17T02:37:51.473Z,744.07
2016-12-17T02:38:51.455Z,744.09
2016-12-17T02:39:51.436Z,744.08
2016-12-17T02:40:51.417Z,744.1
2016-12-17T02:41:51.399Z,744.07
2016-12-17T02:42:51.379Z,744.08
2016-12-17T02:43:51.362Z,744.1
2016-12-17T02:44:51.344Z,744.09
2016-12-17T02:45:51.323Z,744.12
2016-12-17T02:46:51.305Z,744.11
2016-12-17T02:47:51.288Z,744.12
2016-12-17T02:48:51.269Z,744.12
2016-12-17T02:49:51.250Z,744.13
2016-12-17T02:50:51.230Z,744.16
2016-12-17T02:51:51.212Z,744.11
2016-12-17T02:52:51.195Z,744.12
2016-12-17T02:53:51.174Z,744.13
2016-12-17T02:54:51.156Z,744.12
2016-12-17T02:55:51.137Z,744.15
2016-12-17T02:56:51.119Z,744.11
2016-12-17T02:57:51.101Z,744.1
2016-12-17T02:58:51.082Z,744.14
2016-12-17T02:59:51.064Z,744.13
2016-12-17T03:00:51.044Z,744.14
2016-12-17T03:01:51.026Z,744.13
2016-12-17T03:02:51.007Z,744.15
2016-12-17T03:03:50.987Z,744.14
2016-12-17T03:04:50.970Z,744.13
2016-12-17T03:05:50.951Z,744.15
2016-12-17T03:06:50.933Z,744.15
2016-12-17T03:07:50.912Z,744.11
2016-12-17T03:08:50.895Z,744.14
2016-12-17T03:09:50.875Z,744.15
2016-12-17T03:10:50.858Z,744.17
2016-12-17T03:11:50.839Z,744.15
2016-12-17T03:12:50.819Z,744.17
2016-12-17T03:13:50.801Z,744.15
2016-12-17T03:14:50.781Z,744.18
2016-12-17T03:15:50.763Z,744.15
2016-12-17T03:16:50.745Z,744.19
2016-12-17T03:17:50.725Z,744.18
2016-12-17T03:18:50.705Z,744.18
2016-12-17T03:19:50.687Z,744.16
2016-12-17T03:20:50.669Z,744.18
2016-12-17T03:21:50.651Z,744.14
2016-12-17T03:22:50.631Z,744.17
2016-12-17T03:23:50.611Z,744.18
2016-12-17T03:24:50.593Z,744.14
2016-12-17T03:25:50.573Z,744.15
2016-12-17T03:26:50.555Z,744.16
2016-12-17T03:27:50.537Z,744.15
2016-12-17T03:28:50.519Z,744.16
2016-12-17T03:29:50.498Z,744.19
2016-12-17T03:30:50.479Z,744.17
2016-12-17T03:31:50.462Z,744.2
2016-12-17T03:32:50.443Z,744.18
2016-12-17T03:33:50.424Z,744.17
2016-12-17T03:34:50.406Z,744.16
2016-12-17T03:35:50.386Z,744.16
2016-12-17T03:36:50.367Z,744.18
2016-12-17T03:37:50.348Z,744.17
2016-12-17T03:38:50.331Z,744.15
2016-12-17T03:39:50.312Z,744.14
2016-12-17T03:40:50.292Z,744.15
2016-12-17T03:41:50.272Z,744.12
2016-12-17T03:42:50.255Z,744.17
2016-12-17T03:43:50.235Z,744.12
2016-12-17T03:44:50.215Z,744.1
2016-12-17T03:45:50.197Z,744.13
2016-12-17T03:46:50.179Z,744.11
2016-12-17T03:47:50.159Z,744.14
2016-12-17T03:48:50.139Z,744.12
2016-12-17T03:49:50.121Z,744.13
2016-12-17T03:50:50.102Z,744.11
2016-12-17T03:51:50.082Z,744.12
2016-12-17T03:52:50.063Z,744.09
2016-12-17T03:53:50.044Z,744.07
2016-12-17T03:54:50.024Z,744.08
2016-12-17T03:55:50.003Z,744.12
2016-12-17T03:56:49.985Z,744.13
2016-12-17T03:57:49.965Z,744.08
2016-12-17T03:58:49.946Z,744.08
2016-12-17T03:59:49.927Z,744.07
2016-12-17T04:00:49.908Z,744.11
2016-12-17T04:01:49.889Z,744.12
2016-12-17T04:02:49.869Z,744.08
2016-12-17T04:03:49.850Z,744.1
2016-12-17T04:04:49.829Z,744.1
2016-12-17T04:05:49.810Z,744.1
2016-12-17T04:06:49.790Z,744.1
2016-12-17T04:07:49.772Z,744.1
2016-12-17T04:08:49.752Z,744.11
2016-12-17T04:09:49.732Z,744.12
2016-12-17T04:10:49.714Z,744.07
2016-12-17T04:11:49.694Z,744.06
2016-12-17T04:12:49.675Z,744.08
2016-12-17T04:13:49.655Z,744.09
2016-12-17T04:14:49.636Z,744.06
2016-12-17T04:15:49.616Z,744.08
2016-12-17T04:16:49.597Z,744.09
2016-12-17T04:17:49.577Z,744.03
2016-12-17T04:18:49.558Z,744.03
2016-12-17T04:19:49.539Z,744.02
2016-12-17T04:20:49.518Z,744.04
2016-12-17T04:21:49.500Z,744.02
2016-12-17T04:22:49.480Z,744.03
2016-12-17T04:23:49.462Z,744.03
2016-12-17T04:24:49.440Z,744.01
2016-12-17T04:25:49.421Z,744.02
2016-12-17T04:26:49.403Z,744.03
2016-12-17T04:27:49.383Z,744.05
2016-12-17T04:28:49.363Z,744.04
2016-12-17T04:29:49.345Z,744.03
2016-12-17T04:30:49.326Z,744.02
2016-12-17T04:31:49.307Z,744.02
2016-12-17T04:32:49.287Z,744.08
2016-12-17T04:33:49.268Z,744.01
2016-12-17T04:34:49.251Z,744.04
2016-12-17T04:35:49.231Z,744.04
2016-12-17T04:36:49.215Z,744.03
2016-12-17T04:37:49.194Z,744.08
2016-12-17T04:38:49.175Z,744.06
2016-12-17T04:39:49.156Z,744.04
2016-12-17T04:40:49.139Z,744.11
2016-12-17T04:41:49.121Z,744.05
2016-12-17T04:42:49.102Z,744.09
2016-12-17T04:43:49.083Z,744.07
2016-12-17T04:44:49.065Z,744.04
2016-12-17T04:45:49.047Z,744.05
2016-12-17T04:46:49.028Z,744.06
2016-12-17T04:47:49.012Z,744.06
2016-12-17T04:48:48.994Z,744.01
2016-12-17T04:49:48.974Z,744.04
2016-12-17T04:50:48.958Z,744.09
2016-12-17T04:51:48.941Z,744.05
2016-12-17T04:52:48.924Z,744.08
2016-12-17T04:53:48.905Z,744.07
2016-12-17T04:54:48.888Z,744.12
2016-12-17T04:55:48.870Z,744.12
2016-12-17T04:56:48.855Z,744.1
2016-12-17T04:57:48.834Z,744.13
2016-12-17T04:58:49.020Z,744.13
2016-12-17T04:59:48.800Z,744.12
2016-12-17T05:00:48.782Z,744.14
2016-12-17T05:01:48.765Z,744.18
2016-12-17T05:02:48.748Z,744.14
2016-12-17T05:03:48.732Z,744.17
2016-12-17T05:04:48.713Z,744.16
2016-12-17T05:05:48.697Z,744.16
2016-12-17T05:06:48.679Z,744.18
2016-12-17T05:07:48.663Z,744.16
2016-12-17T05:08:48.646Z,744.17
2016-12-17T05:09:48.628Z,744.22
2016-12-17T05:10:48.610Z,744.2
2016-12-17T05:11:48.594Z,744.23
2016-12-17T05:12:48.576Z,744.21
2016-12-17T05:13:48.559Z,744.18
2016-12-17T05:14:48.542Z,744.21
2016-12-17T05:15:48.525Z,744.23
2016-12-17T05:16:48.507Z,744.2
2016-12-17T05:17:48.489Z,744.17
2016-12-17T05:18:48.472Z,744.21
2016-12-17T05:19:48.454Z,744.19
2016-12-17T05:20:48.438Z,744.2
2016-12-17T05:21:48.421Z,744.21
2016-12-17T05:22:48.402Z,744.2
2016-12-17T05:23:48.386Z,744.25
2016-12-17T05:24:48.370Z,744.21
2016-12-17T05:25:48.352Z,744.2
2016-12-17T05:26:48.333Z,744.18
2016-12-17T05:27:48.315Z,744.21
2016-12-17T05:28:48.299Z,744.21
2016-12-17T05:29:48.279Z,744.19
2016-12-17T05:30:48.263Z,744.23
2016-12-17T05:31:48.245Z,744.23
2016-12-17T05:32:48.229Z,744.26
2016-12-17T05:33:48.211Z,744.22
2016-12-17T05:34:48.193Z,744.27
2016-12-17T05:35:48.176Z,744.27
2016-12-17T05:36:48.159Z,744.27
2016-12-17T05:37:48.141Z,744.31
2016-12-17T05:38:48.123Z,744.27
2016-12-17T05:39:48.106Z,744.29
2016-12-17T05:40:48.088Z,744.32
2016-12-17T05:41:48.071Z,744.31
2016-12-17T05:42:48.053Z,744.3
2016-12-17T05:43:48.035Z,744.33
2016-12-17T05:44:48.018Z,744.32
2016-12-17T05:45:48.000Z,744.32
2016-12-17T05:46:47.982Z,744.32
2016-12-17T05:47:47.965Z,744.29
2016-12-17T05:48:47.945Z,744.26
2016-12-17T05:49:47.927Z,744.33
2016-12-17T05:50:47.910Z,744.32
2016-12-17T05:51:47.892Z,744.36
2016-12-17T05:52:47.873Z,744.34
2016-12-17T05:53:47.856Z,744.33
2016-12-17T05:54:47.840Z,744.34
2016-12-17T05:56:47.804Z,744.36
2016-12-17T05:57:47.785Z,744.43
2016-12-17T05:58:47.769Z,744.38
2016-12-17T05:59:47.750Z,744.42
2016-12-17T06:00:47.733Z,744.41
2016-12-17T06:01:47.716Z,744.41
2016-12-17T06:02:47.697Z,744.46
2016-12-17T06:03:47.678Z,744.44
2016-12-17T06:04:47.660Z,744.49
2016-12-17T06:05:47.643Z,744.49
2016-12-17T06:06:47.623Z,744.54
2016-12-17T06:07:47.604Z,744.52
2016-12-17T06:08:47.586Z,744.56
2016-12-17T06:09:47.568Z,744.48
2016-12-17T06:10:47.547Z,744.54
2016-12-17T06:11:47.529Z,744.57
2016-12-17T06:12:47.511Z,744.57
2016-12-17T06:13:47.490Z,744.59
2016-12-17T06:14:47.471Z,744.6
2016-12-17T06:15:47.454Z,744.6
2016-12-17T06:16:47.434Z,744.58
2016-12-17T06:17:47.413Z,744.61
2016-12-17T06:18:47.394Z,744.59
2016-12-17T06:19:47.376Z,744.61
2016-12-17T06:20:47.356Z,744.64
2016-12-17T06:21:47.336Z,744.63
2016-12-17T06:22:47.317Z,744.67
2016-12-17T06:23:47.298Z,744.66
2016-12-17T06:24:47.276Z,744.66
2016-12-17T06:25:47.258Z,744.65
2016-12-17T06:26:47.237Z,744.68
2016-12-17T06:27:47.219Z,744.71
2016-12-17T06:28:47.197Z,744.71
2016-12-17T06:29:47.178Z,744.72
2016-12-17T06:30:47.159Z,744.7
2016-12-17T06:31:47.139Z,744.71
2016-12-17T06:32:47.118Z,744.71
2016-12-17T06:33:47.097Z,744.71
2016-12-17T06:34:47.078Z,744.75
2016-12-17T06:35:47.056Z,744.77
2016-12-17T06:36:47.037Z,744.78
2016-12-17T06:37:47.016Z,744.76
2016-12-17T06:38:46.998Z,744.74
2016-12-17T06:39:46.976Z,744.77
2016-12-17T06:40:46.957Z,744.77
2016-12-17T06:41:46.938Z,744.78
2016-12-17T06:42:46.918Z,744.8
2016-12-17T06:43:46.897Z,744.77
2016-12-17T06:44:46.878Z,744.83
2016-12-17T06:45:46.858Z,744.83
2016-12-17T06:46:46.838Z,744.85
2016-12-17T06:47:46.818Z,744.84
2016-12-17T06:48:46.799Z,744.82
2016-12-17T06:49:46.779Z,744.8
2016-12-17T06:50:46.759Z,744.78
2016-12-17T06:51:46.738Z,744.83
2016-12-17T06:52:46.719Z,744.83
2016-12-17T06:53:46.699Z,744.83
2016-12-17T06:54:46.679Z,744.87
2016-12-17T06:55:46.660Z,744.86
2016-12-17T06:56:46.639Z,744.89
2016-12-17T06:57:46.620Z,744.88
2016-12-17T06:58:46.600Z,744.88
2016-12-17T06:59:46.581Z,744.89
2016-12-17T07:00:46.560Z,744.89
2016-12-17T07:01:46.542Z,744.84
2016-12-17T07:02:46.521Z,744.87
2016-12-17T07:03:46.502Z,744.86
2016-12-17T07:04:46.480Z,744.88
2016-12-17T07:05:46.463Z,744.9
2016-12-17T07:06:46.442Z,744.97
2016-12-17T07:07:46.422Z,744.92
2016-12-17T07:08:46.401Z,744.9
2016-12-17T07:09:46.388Z,744.92
2016-12-17T07:10:46.364Z,744.92
2016-12-17T07:11:46.344Z,744.98
2016-12-17T07:12:46.325Z,744.94
2016-12-17T07:13:46.305Z,744.97
2016-12-17T07:14:46.287Z,744.96
2016-12-17T07:15:46.267Z,745
2016-12-17T07:16:46.249Z,745.05
2016-12-17T07:17:46.229Z,745.04
2016-12-17T07:18:46.211Z,745.02
2016-12-17T07:19:46.192Z,745.03
2016-12-17T07:20:46.173Z,745.07
2016-12-17T07:21:46.155Z,745.08
2016-12-17T07:22:46.137Z,745.11
2016-12-17T07:23:46.118Z,745.09
2016-12-17T07:24:46.099Z,745.12
2016-12-17T07:25:46.083Z,745.13
2016-12-17T07:26:46.062Z,745.12
2016-12-17T07:27:46.044Z,745.11
2016-12-17T07:28:46.024Z,745.13
2016-12-17T07:29:46.008Z,745.13
2016-12-17T07:30:45.988Z,745.17
2016-12-17T07:31:45.970Z,745.14
2016-12-17T07:32:45.951Z,745.12
2016-12-17T07:33:45.935Z,745.16
2016-12-17T07:34:45.913Z,745.19
2016-12-17T07:35:45.895Z,745.22
2016-12-17T07:36:45.878Z,745.2
2016-12-17T07:37:45.858Z,745.17
2016-12-17T07:38:45.841Z,745.24
2016-12-17T07:39:45.823Z,745.22
2016-12-17T07:40:45.806Z,745.23
2016-12-17T07:41:45.787Z,745.24
2016-12-17T07:42:45.768Z,745.25
2016-12-17T07:43:45.752Z,745.25
2016-12-17T07:44:45.733Z,745.28
2016-12-17T07:45:45.714Z,745.3
2016-12-17T07:46:45.698Z,745.34
2016-12-17T07:47:45.680Z,745.31
2016-12-17T07:48:45.661Z,745.28
2016-12-17T07:49:45.644Z,745.31
2016-12-17T07:50:45.626Z,745.32
2016-12-17T07:51:45.608Z,745.28
2016-12-17T07:52:45.591Z,745.3
2016-12-17T07:53:45.573Z,745.28
2016-12-17T07:54:45.555Z,745.27
2016-12-17T07:55:45.537Z,745.3
2016-12-17T07:56:45.519Z,745.28
2016-12-17T07:57:45.500Z,745.3
2016-12-17T07:58:45.483Z,745.26
2016-12-17T07:59:45.465Z,745.28
2016-12-17T08:00:45.448Z,745.29
2016-12-17T08:01:45.429Z,745.34
2016-12-17T08:02:45.413Z,745.29
2016-12-17T08:03:45.394Z,745.32
2016-12-17T08:04:45.377Z,745.33
2016-12-17T08:05:45.361Z,745.34
2016-12-17T08:06:45.343Z,745.36
2016-12-17T08:07:45.325Z,745.32
2016-12-17T08:08:45.308Z,745.35
2016-12-17T08:09:45.291Z,745.33
2016-12-17T08:10:45.271Z,745.39
2016-12-17T08:11:45.254Z,745.34
2016-12-17T08:12:45.238Z,745.36
2016-12-17T08:13:45.221Z,745.36
2016-12-17T08:14:45.201Z,745.37
2016-12-17T08:15:45.183Z,745.41
2016-12-17T08:16:45.167Z,745.43
2016-12-17T08:17:45.150Z,745.37
2016-12-17T08:18:45.131Z,745.39
2016-12-17T08:19:45.116Z,745.38
2016-12-17T08:20:45.098Z,745.4
2016-12-17T08:21:45.080Z,745.41
2016-12-17T08:22:45.063Z,745.33
2016-12-17T08:23:45.046Z,745.36
2016-12-17T08:24:45.028Z,745.4
2016-12-17T08:25:45.009Z,745.35
2016-12-17T08:26:44.992Z,745.32
2016-12-17T08:27:44.973Z,745.39
2016-12-17T08:28:44.955Z,745.34
2016-12-17T08:29:44.937Z,745.35
2016-12-17T08:30:44.921Z,745.38
2016-12-17T08:31:44.903Z,745.39
2016-12-17T08:32:44.883Z,745.38
2016-12-17T08:33:44.867Z,745.42
2016-12-17T08:34:44.849Z,745.42
2016-12-17T08:35:44.830Z,745.41
2016-12-17T08:36:44.813Z,745.42
2016-12-17T08:37:44.794Z,745.43
2016-12-17T08:38:44.807Z,745.47
2016-12-17T08:39:44.760Z,745.49
2016-12-17T08:40:44.743Z,745.51
2016-12-17T08:41:44.725Z,745.56
2016-12-17T08:42:44.708Z,745.5
2016-12-17T08:43:44.689Z,745.59
2016-12-17T08:44:44.672Z,745.62
2016-12-17T08:45:44.654Z,745.62
2016-12-17T08:46:44.637Z,745.62
2016-12-17T08:47:44.618Z,745.66
2016-12-17T08:48:44.600Z,745.63
2016-12-17T08:49:44.583Z,745.62
2016-12-17T08:50:44.566Z,745.66
2016-12-17T08:51:44.550Z,745.61
2016-12-17T08:52:44.531Z,745.63
2016-12-17T08:53:44.516Z,745.6
2016-12-17T08:54:44.497Z,745.63
2016-12-17T08:55:44.480Z,745.66
2016-12-17T08:56:44.465Z,745.61
2016-12-17T08:57:44.449Z,745.66
2016-12-17T08:58:44.432Z,745.65
2016-12-17T08:59:44.416Z,745.68
2016-12-17T09:00:44.400Z,745.64
2016-12-17T09:01:44.384Z,745.62
2016-12-17T09:02:44.369Z,745.65
2016-12-17T09:03:44.353Z,745.66
2016-12-17T09:04:44.339Z,745.64
2016-12-17T09:05:44.322Z,745.67
2016-12-17T09:06:44.309Z,745.66
2016-12-17T09:07:44.295Z,745.71
2016-12-17T09:08:44.279Z,745.67
2016-12-17T09:09:44.265Z,745.69
2016-12-17T09:10:44.251Z,745.76
2016-12-17T09:11:44.238Z,745.72
2016-12-17T09:12:44.222Z,745.77
2016-12-17T09:13:44.206Z,745.76
2016-12-17T09:14:44.192Z,745.77
2016-12-17T09:15:44.176Z,745.83
2016-12-17T09:16:44.161Z,745.77
2016-12-17T09:17:44.146Z,745.78
2016-12-17T09:18:44.130Z,745.84
2016-12-17T09:19:44.115Z,745.81
2016-12-17T09:20:44.099Z,745.75
2016-12-17T09:21:44.085Z,745.75
2016-12-17T09:22:44.068Z,745.82
2016-12-17T09:23:44.052Z,745.73
2016-12-17T09:24:44.038Z,745.81
2016-12-17T09:25:44.024Z,745.77
2016-12-17T09:26:44.009Z,745.8
2016-12-17T09:27:43.994Z,745.81
2016-12-17T09:28:43.980Z,745.79
2016-12-17T09:29:43.968Z,745.83
2016-12-17T09:30:43.953Z,745.82
2016-12-17T09:31:43.938Z,745.83
2016-12-17T09:32:43.926Z,745.82
2016-12-17T09:33:43.914Z,745.89
2016-12-17T09:34:43.900Z,745.88
2016-12-17T09:35:43.887Z,745.9
2016-12-17T09:36:43.875Z,745.89
2016-12-17T09:37:43.862Z,745.85
2016-12-17T09:38:43.849Z,745.89
2016-12-17T09:39:43.837Z,745.88
2016-12-17T09:40:43.823Z,745.89
2016-12-17T09:41:43.812Z,745.88
2016-12-17T09:42:43.798Z,745.86
2016-12-17T09:43:43.787Z,745.88
2016-12-17T09:44:43.774Z,745.86
2016-12-17T09:45:43.765Z,745.89
2016-12-17T09:46:43.750Z,745.89
2016-12-17T09:47:43.739Z,745.89
2016-12-17T09:48:43.727Z,745.87
2016-12-17T09:49:43.714Z,745.89
2016-12-17T09:50:43.701Z,745.85
2016-12-17T09:51:43.690Z,745.86
2016-12-17T09:52:43.678Z,745.88
2016-12-17T09:53:43.667Z,745.87
2016-12-17T09:54:43.654Z,745.89
2016-12-17T09:55:43.642Z,745.89
2016-12-17T09:56:43.630Z,745.89
2016-12-17T09:57:43.618Z,745.87
2016-12-17T09:58:43.606Z,745.88
2016-12-17T09:59:43.596Z,745.91
2016-12-17T10:00:43.584Z,745.86
2016-12-17T10:01:43.571Z,745.87
2016-12-17T10:02:43.559Z,745.87
2016-12-17T10:03:43.547Z,745.89
2016-12-17T10:04:43.536Z,745.88
2016-12-17T10:05:43.525Z,745.91
2016-12-17T10:06:43.514Z,745.91
2016-12-17T10:07:43.501Z,745.89
2016-12-17T10:08:43.489Z,745.92
2016-12-17T10:09:43.479Z,745.88
2016-12-17T10:10:43.467Z,745.87
2016-12-17T10:11:43.455Z,745.9
2016-12-17T10:12:43.443Z,745.92
2016-12-17T10:13:43.433Z,745.89
2016-12-17T10:14:43.420Z,745.9
2016-12-17T10:15:43.409Z,745.85
2016-12-17T10:16:43.398Z,745.85
2016-12-17T10:17:43.388Z,745.86
2016-12-17T10:18:43.375Z,745.81
2016-12-17T10:19:43.364Z,745.83
2016-12-17T10:20:43.352Z,745.83
2016-12-17T10:21:43.342Z,745.85
2016-12-17T10:22:43.328Z,745.82
2016-12-17T10:23:43.318Z,745.79
2016-12-17T10:24:43.306Z,745.85
2016-12-17T10:25:43.294Z,745.84
2016-12-17T10:26:43.281Z,745.85
2016-12-17T10:27:43.271Z,745.84
2016-12-17T10:28:43.259Z,745.85
2016-12-17T10:29:43.248Z,745.8
2016-12-17T10:30:43.236Z,745.8
2016-12-17T10:31:43.224Z,745.78
2016-12-17T10:32:43.214Z,745.78
2016-12-17T10:33:43.202Z,745.78
2016-12-17T10:34:43.189Z,745.76
2016-12-17T10:35:43.179Z,745.79
2016-12-17T10:36:43.165Z,745.83
2016-12-17T10:37:43.153Z,745.83
2016-12-17T10:38:43.141Z,745.84
2016-12-17T10:39:43.129Z,745.8
2016-12-17T10:40:43.116Z,745.8
2016-12-17T10:41:43.102Z,745.79
2016-12-17T10:42:43.090Z,745.78
2016-12-17T10:43:43.078Z,745.83
2016-12-17T10:44:43.078Z,745.82
2016-12-17T10:45:43.049Z,745.81
2016-12-17T10:46:43.040Z,745.84
2016-12-17T10:47:43.023Z,745.84
2016-12-17T10:48:43.008Z,745.89
2016-12-17T10:49:42.994Z,745.84
2016-12-17T10:50:42.981Z,745.81
2016-12-17T10:51:42.967Z,745.88
2016-12-17T10:52:42.952Z,745.84
2016-12-17T10:53:42.937Z,745.84
2016-12-17T10:54:42.922Z,745.82
2016-12-17T10:55:42.907Z,745.8
2016-12-17T10:56:42.894Z,745.78
2016-12-17T10:57:42.879Z,745.81
2016-12-17T10:58:42.863Z,745.79
2016-12-17T10:59:42.848Z,745.79
2016-12-17T11:00:42.835Z,745.83
2016-12-17T11:01:42.820Z,745.77
2016-12-17T11:02:42.804Z,745.78
2016-12-17T11:03:42.790Z,745.77
2016-12-17T11:04:42.776Z,745.74
2016-12-17T11:05:42.762Z,745.76
2016-12-17T11:06:42.747Z,745.73
2016-12-17T11:07:42.732Z,745.73
2016-12-17T11:08:42.719Z,745.76
2016-12-17T11:09:42.704Z,745.71
2016-12-17T11:10:42.690Z,745.74
2016-12-17T11:11:42.677Z,745.77
2016-12-17T11:12:42.663Z,745.76
2016-12-17T11:13:42.648Z,745.73
2016-12-17T11:14:42.634Z,745.71
2016-12-17T11:15:42.621Z,745.72
2016-12-17T11:16:42.609Z,745.68
2016-12-17T11:17:42.595Z,745.69
2016-12-17T11:18:42.582Z,745.72
2016-12-17T11:19:42.570Z,745.71
2016-12-17T11:20:42.556Z,745.69
2016-12-17T11:21:42.542Z,745.75
2016-12-17T11:22:42.530Z,745.77
2016-12-17T11:23:42.516Z,745.76
2016-12-17T11:24:42.504Z,745.74
2016-12-17T11:25:42.490Z,745.81
2016-12-17T11:26:42.476Z,745.82
2016-12-17T11:27:42.464Z,745.75
2016-12-17T11:28:42.449Z,745.76
2016-12-17T11:29:42.438Z,745.78
2016-12-17T11:30:42.425Z,745.77
2016-12-17T11:31:42.411Z,745.76
2016-12-17T11:32:42.399Z,745.75
2016-12-17T11:33:42.388Z,745.74
2016-12-17T11:34:42.373Z,745.75
2016-12-17T11:35:42.358Z,745.74
2016-12-17T11:36:42.346Z,745.71
2016-12-17T11:37:42.333Z,745.7
2016-12-17T11:38:42.319Z,745.69
2016-12-17T11:39:42.307Z,745.7
2016-12-17T11:40:42.294Z,745.75
2016-12-17T11:41:42.281Z,745.71
2016-12-17T11:42:42.268Z,745.73
2016-12-17T11:43:42.255Z,745.71
2016-12-17T11:44:42.243Z,745.73
2016-12-17T11:45:42.232Z,745.71
2016-12-17T11:46:42.217Z,745.68
2016-12-17T11:47:42.206Z,745.7
2016-12-17T11:48:42.193Z,745.67
2016-12-17T11:49:42.181Z,745.63
2016-12-17T11:50:42.170Z,745.69
2016-12-17T11:51:42.158Z,745.64
2016-12-17T11:52:42.146Z,745.67
2016-12-17T11:53:42.132Z,745.64
2016-12-17T11:54:42.121Z,745.64
2016-12-17T11:55:42.110Z,745.62
2016-12-17T11:56:42.097Z,745.67
2016-12-17T11:57:42.084Z,745.62
2016-12-17T11:58:42.072Z,745.62
2016-12-17T11:59:42.059Z,745.64
2016-12-17T12:00:42.047Z,745.68
2016-12-17T12:01:42.035Z,745.67
2016-12-17T12:02:42.023Z,745.67
2016-12-17T12:03:42.010Z,745.63
2016-12-17T12:04:41.996Z,745.58
2016-12-17T12:05:41.984Z,745.57
2016-12-17T12:06:41.972Z,745.61
2016-12-17T12:07:41.960Z,745.63
2016-12-17T12:08:41.946Z,745.69
2016-12-17T12:09:41.933Z,745.7
2016-12-17T12:10:41.922Z,745.67
2016-12-17T12:11:41.908Z,745.71
2016-12-17T12:12:41.895Z,745.69
2016-12-17T12:13:41.882Z,745.69
2016-12-17T12:14:41.869Z,745.71
2016-12-17T12:15:41.857Z,745.68
2016-12-17T12:16:41.845Z,745.73
2016-12-17T12:17:41.832Z,745.7
2016-12-17T12:18:41.820Z,745.7
2016-12-17T12:19:41.805Z,745.73
2016-12-17T12:20:41.794Z,745.69
2016-12-17T12:21:41.781Z,745.69
2016-12-17T12:22:41.767Z,745.69
2016-12-17T12:23:41.755Z,745.7
2016-12-17T12:24:41.742Z,745.69
2016-12-17T12:25:41.730Z,745.68
2016-12-17T12:26:41.717Z,745.69
2016-12-17T12:27:41.705Z,745.63
2016-12-17T12:28:41.693Z,745.63
2016-12-17T12:29:41.680Z,745.64
2016-12-17T12:30:41.667Z,745.61
2016-12-17T12:31:41.655Z,745.64